sensor_id;sensor_type;location;lat;lon;timestamp;P1;durP1;ratioP1;P2;durP2;ratioP2
51190;SDS011;37253;48.736;9.294;2023-02-28T00:01:04;3.50;;;0.70;;
51190;SDS011;37253;48.736;9.294;2023-02-28T00:03:04;0.75;;;0.60;;
51190;SDS011;37253;48.736;9.294;2023-02-28T00:05:05;1.30;;;0.50;;
51190;SDS011;37253;48.736;9.294;2023-02-28T00:07:06;1.38;;;0.60;;
51190;SDS011;37253;48.736;9.294;2023-02-28T00:09:07;1.38;;;0.70;;
51190;SDS011;37253;48.736;9.294;2023-02-28T00:11:11;2.08;;;0.60;;
51190;SDS011;37253;48.736;9.294;2023-02-28T00:13:13;1.50;;;0.60;;
51190;SDS011;37253;48.736;9.294;2023-02-28T00:15:13;0.82;;;0.60;;
51190;SDS011;37253;48.736;9.294;2023-02-28T00:17:13;1.02;;;0.60;;
51190;SDS011;37253;48.736;9.294;2023-02-28T00:19:14;1.65;;;0.60;;
51190;SDS011;37253;48.736;9.294;2023-02-28T00:21:14;0.73;;;0.55;;
51190;SDS011;37253;48.736;9.294;2023-02-28T00:23:15;0.70;;;0.50;;
51190;SDS011;37253;48.736;9.294;2023-02-28T00:25:20;1.13;;;0.70;;
51190;SDS011;37253;48.736;9.294;2023-02-28T00:27:24;0.68;;;0.60;;
51190;SDS011;37253;48.736;9.294;2023-02-28T00:29:25;1.00;;;0.60;;
51190;SDS011;37253;48.736;9.294;2023-02-28T00:31:25;2.70;;;0.60;;
51190;SDS011;37253;48.736;9.294;2023-02-28T00:33:26;3.35;;;0.60;;
51190;SDS011;37253;48.736;9.294;2023-02-28T00:35:26;1.83;;;0.70;;
51190;SDS011;37253;48.736;9.294;2023-02-28T00:37:27;1.75;;;0.70;;
51190;SDS011;37253;48.736;9.294;2023-02-28T00:39:27;2.17;;;0.60;;
51190;SDS011;37253;48.736;9.294;2023-02-28T00:41:27;1.48;;;0.45;;
51190;SDS011;37253;48.736;9.294;2023-02-28T00:43:28;1.23;;;0.65;;
51190;SDS011;37253;48.736;9.294;2023-02-28T00:45:28;1.13;;;0.60;;
51190;SDS011;37253;48.736;9.294;2023-02-28T00:47:28;0.85;;;0.57;;
51190;SDS011;37253;48.736;9.294;2023-02-28T00:49:29;0.80;;;0.50;;
51190;SDS011;37253;48.736;9.294;2023-02-28T00:51:29;1.58;;;0.60;;
51190;SDS011;37253;48.736;9.294;2023-02-28T00:53:29;1.17;;;0.63;;
51190;SDS011;37253;48.736;9.294;2023-02-28T00:55:30;2.22;;;0.60;;
51190;SDS011;37253;48.736;9.294;2023-02-28T00:57:30;0.90;;;0.60;;
51190;SDS011;37253;48.736;9.294;2023-02-28T00:59:30;1.10;;;0.60;;
51190;SDS011;37253;48.736;9.294;2023-02-28T01:01:31;1.40;;;0.70;;
51190;SDS011;37253;48.736;9.294;2023-02-28T01:03:31;0.82;;;0.60;;
51190;SDS011;37253;48.736;9.294;2023-02-28T01:05:31;2.05;;;0.60;;
51190;SDS011;37253;48.736;9.294;2023-02-28T01:07:32;1.63;;;0.60;;
51190;SDS011;37253;48.736;9.294;2023-02-28T01:09:32;0.82;;;0.63;;
51190;SDS011;37253;48.736;9.294;2023-02-28T01:11:33;1.02;;;0.60;;
51190;SDS011;37253;48.736;9.294;2023-02-28T01:13:33;1.25;;;0.70;;
51190;SDS011;37253;48.736;9.294;2023-02-28T01:15:34;1.17;;;0.65;;
51190;SDS011;37253;48.736;9.294;2023-02-28T01:17:34;1.10;;;0.60;;
51190;SDS011;37253;48.736;9.294;2023-02-28T01:19:35;1.30;;;0.60;;
51190;SDS011;37253;48.736;9.294;2023-02-28T01:21:36;1.20;;;0.80;;
51190;SDS011;37253;48.736;9.294;2023-02-28T01:23:36;0.85;;;0.60;;
51190;SDS011;37253;48.736;9.294;2023-02-28T01:25:37;2.45;;;0.80;;
51190;SDS011;37253;48.736;9.294;2023-02-28T01:27:37;1.50;;;0.70;;
51190;SDS011;37253;48.736;9.294;2023-02-28T01:29:39;0.70;;;0.60;;
51190;SDS011;37253;48.736;9.294;2023-02-28T01:31:39;1.45;;;0.77;;
51190;SDS011;37253;48.736;9.294;2023-02-28T01:33:39;1.23;;;0.68;;
51190;SDS011;37253;48.736;9.294;2023-02-28T01:35:40;1.08;;;0.70;;
51190;SDS011;37253;48.736;9.294;2023-02-28T01:37:40;0.90;;;0.70;;
51190;SDS011;37253;48.736;9.294;2023-02-28T01:39:41;0.88;;;0.52;;
51190;SDS011;37253;48.736;9.294;2023-02-28T01:41:41;1.25;;;0.70;;
51190;SDS011;37253;48.736;9.294;2023-02-28T01:45:41;0.90;;;0.63;;
51190;SDS011;37253;48.736;9.294;2023-02-28T01:47:42;1.50;;;0.50;;
51190;SDS011;37253;48.736;9.294;2023-02-28T01:49:43;1.83;;;0.70;;
51190;SDS011;37253;48.736;9.294;2023-02-28T01:51:45;1.38;;;0.70;;
51190;SDS011;37253;48.736;9.294;2023-02-28T01:53:56;0.80;;;0.60;;
51190;SDS011;37253;48.736;9.294;2023-02-28T01:56:00;1.42;;;0.70;;
51190;SDS011;37253;48.736;9.294;2023-02-28T01:58:04;1.15;;;0.73;;
51190;SDS011;37253;48.736;9.294;2023-02-28T02:00:06;2.15;;;0.50;;
51190;SDS011;37253;48.736;9.294;2023-02-28T02:02:14;2.35;;;0.77;;
51190;SDS011;37253;48.736;9.294;2023-02-28T02:04:16;1.00;;;0.70;;
51190;SDS011;37253;48.736;9.294;2023-02-28T02:06:17;1.55;;;0.50;;
51190;SDS011;37253;48.736;9.294;2023-02-28T02:08:19;0.70;;;0.60;;
51190;SDS011;37253;48.736;9.294;2023-02-28T02:10:25;1.50;;;0.70;;
51190;SDS011;37253;48.736;9.294;2023-02-28T02:14:48;1.30;;;0.52;;
51190;SDS011;37253;48.736;9.294;2023-02-28T02:19:14;1.30;;;0.60;;
51190;SDS011;37253;48.736;9.294;2023-02-28T02:35:43;1.27;;;0.73;;
51190;SDS011;37253;48.736;9.294;2023-02-28T02:42:20;2.75;;;0.82;;
51190;SDS011;37253;48.736;9.294;2023-02-28T02:44:27;1.38;;;0.70;;
51190;SDS011;37253;48.736;9.294;2023-02-28T02:46:33;0.85;;;0.63;;
51190;SDS011;37253;48.736;9.294;2023-02-28T02:50:37;1.55;;;0.60;;
51190;SDS011;37253;48.736;9.294;2023-02-28T02:52:42;1.48;;;0.57;;
51190;SDS011;37253;48.736;9.294;2023-02-28T02:54:45;1.80;;;0.82;;
51190;SDS011;37253;48.736;9.294;2023-02-28T02:56:48;0.90;;;0.70;;
51190;SDS011;37253;48.736;9.294;2023-02-28T02:58:49;0.90;;;0.60;;
51190;SDS011;37253;48.736;9.294;2023-02-28T03:00:52;2.20;;;0.70;;
51190;SDS011;37253;48.736;9.294;2023-02-28T03:02:54;1.17;;;0.70;;
51190;SDS011;37253;48.736;9.294;2023-02-28T03:04:58;0.55;;;0.55;;
51190;SDS011;37253;48.736;9.294;2023-02-28T03:07:00;0.40;;;0.40;;
51190;SDS011;37253;48.736;9.294;2023-02-28T03:09:01;0.90;;;0.55;;
51190;SDS011;37253;48.736;9.294;2023-02-28T03:11:03;1.20;;;0.70;;
51190;SDS011;37253;48.736;9.294;2023-02-28T03:13:09;0.95;;;0.70;;
51190;SDS011;37253;48.736;9.294;2023-02-28T03:15:23;1.60;;;0.70;;
51190;SDS011;37253;48.736;9.294;2023-02-28T03:20:00;0.88;;;0.60;;
51190;SDS011;37253;48.736;9.294;2023-02-28T03:24:19;1.10;;;0.63;;
51190;SDS011;37253;48.736;9.294;2023-02-28T03:26:26;1.27;;;0.60;;
51190;SDS011;37253;48.736;9.294;2023-02-28T03:31:06;0.70;;;0.70;;
51190;SDS011;37253;48.736;9.294;2023-02-28T03:33:11;0.70;;;0.60;;
51190;SDS011;37253;48.736;9.294;2023-02-28T03:35:25;1.35;;;0.70;;
51190;SDS011;37253;48.736;9.294;2023-02-28T03:37:29;1.48;;;0.80;;
51190;SDS011;37253;48.736;9.294;2023-02-28T03:39:36;1.08;;;0.68;;
51190;SDS011;37253;48.736;9.294;2023-02-28T03:41:40;0.85;;;0.60;;
51190;SDS011;37253;48.736;9.294;2023-02-28T03:43:44;1.17;;;0.77;;
51190;SDS011;37253;48.736;9.294;2023-02-28T03:45:50;1.10;;;0.60;;
51190;SDS011;37253;48.736;9.294;2023-02-28T03:47:52;0.57;;;0.40;;
51190;SDS011;37253;48.736;9.294;2023-02-28T03:49:56;0.82;;;0.60;;
51190;SDS011;37253;48.736;9.294;2023-02-28T03:51:57;0.68;;;0.60;;
51190;SDS011;37253;48.736;9.294;2023-02-28T03:54:01;0.65;;;0.60;;
51190;SDS011;37253;48.736;9.294;2023-02-28T03:56:06;1.45;;;0.52;;
51190;SDS011;37253;48.736;9.294;2023-02-28T04:00:42;2.28;;;0.60;;
51190;SDS011;37253;48.736;9.294;2023-02-28T04:02:45;1.75;;;0.70;;
51190;SDS011;37253;48.736;9.294;2023-02-28T04:04:45;0.90;;;0.70;;
51190;SDS011;37253;48.736;9.294;2023-02-28T04:06:49;0.90;;;0.70;;
51190;SDS011;37253;48.736;9.294;2023-02-28T04:08:51;0.88;;;0.65;;
51190;SDS011;37253;48.736;9.294;2023-02-28T04:10:54;1.17;;;0.70;;
51190;SDS011;37253;48.736;9.294;2023-02-28T04:12:56;0.70;;;0.60;;
51190;SDS011;37253;48.736;9.294;2023-02-28T04:14:56;1.08;;;0.50;;
51190;SDS011;37253;48.736;9.294;2023-02-28T04:16:57;0.75;;;0.52;;
51190;SDS011;37253;48.736;9.294;2023-02-28T04:18:57;1.85;;;0.60;;
51190;SDS011;37253;48.736;9.294;2023-02-28T04:21:02;1.48;;;0.70;;
51190;SDS011;37253;48.736;9.294;2023-02-28T04:23:02;1.00;;;0.65;;
51190;SDS011;37253;48.736;9.294;2023-02-28T04:25:02;0.73;;;0.52;;
51190;SDS011;37253;48.736;9.294;2023-02-28T04:27:03;1.17;;;0.60;;
51190;SDS011;37253;48.736;9.294;2023-02-28T04:29:04;1.15;;;0.73;;
51190;SDS011;37253;48.736;9.294;2023-02-28T04:31:05;1.35;;;0.60;;
51190;SDS011;37253;48.736;9.294;2023-02-28T04:33:05;1.25;;;0.75;;
51190;SDS011;37253;48.736;9.294;2023-02-28T04:35:06;1.00;;;0.70;;
51190;SDS011;37253;48.736;9.294;2023-02-28T04:37:07;1.38;;;0.70;;
51190;SDS011;37253;48.736;9.294;2023-02-28T04:39:07;1.27;;;0.70;;
51190;SDS011;37253;48.736;9.294;2023-02-28T04:41:09;2.55;;;0.68;;
51190;SDS011;37253;48.736;9.294;2023-02-28T04:43:09;1.20;;;0.63;;
51190;SDS011;37253;48.736;9.294;2023-02-28T04:45:10;1.35;;;0.68;;
51190;SDS011;37253;48.736;9.294;2023-02-28T04:47:10;1.83;;;0.70;;
51190;SDS011;37253;48.736;9.294;2023-02-28T04:49:11;0.90;;;0.60;;
51190;SDS011;37253;48.736;9.294;2023-02-28T04:51:12;0.82;;;0.70;;
51190;SDS011;37253;48.736;9.294;2023-02-28T04:53:14;1.02;;;0.80;;
51190;SDS011;37253;48.736;9.294;2023-02-28T04:55:14;1.52;;;0.68;;
51190;SDS011;37253;48.736;9.294;2023-02-28T04:57:14;3.13;;;0.60;;
51190;SDS011;37253;48.736;9.294;2023-02-28T04:59:15;1.33;;;0.60;;
51190;SDS011;37253;48.736;9.294;2023-02-28T05:01:26;1.35;;;0.70;;
51190;SDS011;37253;48.736;9.294;2023-02-28T05:03:27;0.70;;;0.60;;
51190;SDS011;37253;48.736;9.294;2023-02-28T05:05:27;1.30;;;0.80;;
51190;SDS011;37253;48.736;9.294;2023-02-28T05:07:28;1.10;;;0.70;;
51190;SDS011;37253;48.736;9.294;2023-02-28T05:09:29;1.38;;;0.80;;
51190;SDS011;37253;48.736;9.294;2023-02-28T05:11:30;0.90;;;0.70;;
51190;SDS011;37253;48.736;9.294;2023-02-28T05:13:34;0.90;;;0.77;;
51190;SDS011;37253;48.736;9.294;2023-02-28T05:15:35;1.10;;;0.73;;
51190;SDS011;37253;48.736;9.294;2023-02-28T05:17:36;0.80;;;0.65;;
51190;SDS011;37253;48.736;9.294;2023-02-28T05:19:36;1.00;;;0.70;;
51190;SDS011;37253;48.736;9.294;2023-02-28T05:21:37;1.05;;;0.60;;
51190;SDS011;37253;48.736;9.294;2023-02-28T05:23:39;1.33;;;0.73;;
51190;SDS011;37253;48.736;9.294;2023-02-28T05:25:39;0.93;;;0.70;;
51190;SDS011;37253;48.736;9.294;2023-02-28T05:27:40;0.68;;;0.68;;
51190;SDS011;37253;48.736;9.294;2023-02-28T05:29:40;1.02;;;0.80;;
51190;SDS011;37253;48.736;9.294;2023-02-28T05:31:45;0.82;;;0.73;;
51190;SDS011;37253;48.736;9.294;2023-02-28T05:33:45;0.90;;;0.60;;
51190;SDS011;37253;48.736;9.294;2023-02-28T05:35:46;0.77;;;0.68;;
51190;SDS011;37253;48.736;9.294;2023-02-28T05:37:46;1.00;;;0.60;;
51190;SDS011;37253;48.736;9.294;2023-02-28T05:39:46;0.95;;;0.57;;
51190;SDS011;37253;48.736;9.294;2023-02-28T05:41:46;1.15;;;0.90;;
51190;SDS011;37253;48.736;9.294;2023-02-28T05:43:47;1.20;;;0.70;;
51190;SDS011;37253;48.736;9.294;2023-02-28T05:45:47;0.98;;;0.70;;
51190;SDS011;37253;48.736;9.294;2023-02-28T05:47:48;0.98;;;0.63;;
51190;SDS011;37253;48.736;9.294;2023-02-28T05:49:48;1.27;;;0.80;;
51190;SDS011;37253;48.736;9.294;2023-02-28T05:51:48;0.93;;;0.70;;
51190;SDS011;37253;48.736;9.294;2023-02-28T05:53:49;4.03;;;1.33;;
51190;SDS011;37253;48.736;9.294;2023-02-28T05:55:49;2.78;;;1.00;;
51190;SDS011;37253;48.736;9.294;2023-02-28T05:57:49;1.73;;;0.90;;
51190;SDS011;37253;48.736;9.294;2023-02-28T05:59:50;2.20;;;0.80;;
51190;SDS011;37253;48.736;9.294;2023-02-28T06:01:50;1.38;;;0.70;;
51190;SDS011;37253;48.736;9.294;2023-02-28T06:03:52;2.08;;;0.85;;
51190;SDS011;37253;48.736;9.294;2023-02-28T06:05:53;3.70;;;0.80;;
51190;SDS011;37253;48.736;9.294;2023-02-28T06:07:53;1.08;;;0.60;;
51190;SDS011;37253;48.736;9.294;2023-02-28T06:09:53;1.88;;;0.80;;
51190;SDS011;37253;48.736;9.294;2023-02-28T06:11:54;0.90;;;0.73;;
51190;SDS011;37253;48.736;9.294;2023-02-28T06:13:55;2.03;;;0.80;;
51190;SDS011;37253;48.736;9.294;2023-02-28T06:15:59;2.90;;;0.83;;
51190;SDS011;37253;48.736;9.294;2023-02-28T06:18:00;2.10;;;0.70;;
51190;SDS011;37253;48.736;9.294;2023-02-28T06:20:01;3.58;;;0.73;;
51190;SDS011;37253;48.736;9.294;2023-02-28T06:22:01;3.35;;;0.70;;
51190;SDS011;37253;48.736;9.294;2023-02-28T06:24:02;0.75;;;0.68;;
51190;SDS011;37253;48.736;9.294;2023-02-28T06:26:02;2.53;;;0.80;;
51190;SDS011;37253;48.736;9.294;2023-02-28T06:28:02;2.88;;;0.73;;
51190;SDS011;37253;48.736;9.294;2023-02-28T06:30:03;1.70;;;0.70;;
51190;SDS011;37253;48.736;9.294;2023-02-28T06:32:04;2.00;;;0.90;;
51190;SDS011;37253;48.736;9.294;2023-02-28T06:34:04;2.38;;;0.63;;
51190;SDS011;37253;48.736;9.294;2023-02-28T06:36:05;3.80;;;0.85;;
51190;SDS011;37253;48.736;9.294;2023-02-28T06:38:06;1.52;;;0.70;;
51190;SDS011;37253;48.736;9.294;2023-02-28T06:40:06;1.52;;;0.63;;
51190;SDS011;37253;48.736;9.294;2023-02-28T06:42:08;2.28;;;0.90;;
51190;SDS011;37253;48.736;9.294;2023-02-28T06:44:12;2.22;;;0.70;;
51190;SDS011;37253;48.736;9.294;2023-02-28T06:46:13;1.48;;;0.50;;
51190;SDS011;37253;48.736;9.294;2023-02-28T06:48:14;3.13;;;1.00;;
51190;SDS011;37253;48.736;9.294;2023-02-28T06:50:14;1.30;;;0.75;;
51190;SDS011;37253;48.736;9.294;2023-02-28T06:52:17;1.15;;;0.60;;
51190;SDS011;37253;48.736;9.294;2023-02-28T06:54:17;1.88;;;0.80;;
51190;SDS011;37253;48.736;9.294;2023-02-28T06:56:18;2.92;;;0.80;;
51190;SDS011;37253;48.736;9.294;2023-02-28T06:58:20;3.35;;;0.98;;
51190;SDS011;37253;48.736;9.294;2023-02-28T07:00:20;1.73;;;0.70;;
51190;SDS011;37253;48.736;9.294;2023-02-28T07:02:20;1.83;;;0.70;;
51190;SDS011;37253;48.736;9.294;2023-02-28T07:04:21;1.98;;;0.80;;
51190;SDS011;37253;48.736;9.294;2023-02-28T07:06:21;2.17;;;0.70;;
51190;SDS011;37253;48.736;9.294;2023-02-28T07:08:23;1.80;;;0.73;;
51190;SDS011;37253;48.736;9.294;2023-02-28T07:10:24;1.98;;;0.80;;
51190;SDS011;37253;48.736;9.294;2023-02-28T07:12:24;1.10;;;0.80;;
51190;SDS011;37253;48.736;9.294;2023-02-28T07:14:24;1.95;;;1.00;;
51190;SDS011;37253;48.736;9.294;2023-02-28T07:16:25;1.52;;;0.77;;
51190;SDS011;37253;48.736;9.294;2023-02-28T07:18:25;2.70;;;0.90;;
51190;SDS011;37253;48.736;9.294;2023-02-28T07:20:26;1.85;;;0.60;;
51190;SDS011;37253;48.736;9.294;2023-02-28T07:22:26;1.95;;;0.80;;
51190;SDS011;37253;48.736;9.294;2023-02-28T07:24:28;5.40;;;0.90;;
51190;SDS011;37253;48.736;9.294;2023-02-28T07:26:29;1.40;;;0.70;;
51190;SDS011;37253;48.736;9.294;2023-02-28T07:28:29;1.90;;;0.80;;
51190;SDS011;37253;48.736;9.294;2023-02-28T07:30:29;2.92;;;0.95;;
51190;SDS011;37253;48.736;9.294;2023-02-28T07:32:30;0.80;;;0.52;;
51190;SDS011;37253;48.736;9.294;2023-02-28T07:34:30;3.38;;;0.90;;
51190;SDS011;37253;48.736;9.294;2023-02-28T07:36:30;2.55;;;0.88;;
51190;SDS011;37253;48.736;9.294;2023-02-28T07:38:33;1.65;;;0.85;;
51190;SDS011;37253;48.736;9.294;2023-02-28T07:40:34;2.35;;;0.93;;
51190;SDS011;37253;48.736;9.294;2023-02-28T07:42:35;2.05;;;0.90;;
51190;SDS011;37253;48.736;9.294;2023-02-28T07:44:35;2.15;;;0.90;;
51190;SDS011;37253;48.736;9.294;2023-02-28T07:46:40;3.75;;;0.70;;
51190;SDS011;37253;48.736;9.294;2023-02-28T07:48:40;2.60;;;0.90;;
51190;SDS011;37253;48.736;9.294;2023-02-28T07:50:41;1.45;;;0.80;;
51190;SDS011;37253;48.736;9.294;2023-02-28T07:52:41;2.67;;;0.90;;
51190;SDS011;37253;48.736;9.294;2023-02-28T07:54:42;2.00;;;0.80;;
51190;SDS011;37253;48.736;9.294;2023-02-28T07:56:42;3.67;;;0.85;;
51190;SDS011;37253;48.736;9.294;2023-02-28T07:58:42;1.48;;;0.80;;
51190;SDS011;37253;48.736;9.294;2023-02-28T08:00:42;2.70;;;0.90;;
51190;SDS011;37253;48.736;9.294;2023-02-28T08:02:43;5.93;;;1.02;;
51190;SDS011;37253;48.736;9.294;2023-02-28T08:04:43;4.03;;;0.90;;
51190;SDS011;37253;48.736;9.294;2023-02-28T08:06:44;3.72;;;1.08;;
51190;SDS011;37253;48.736;9.294;2023-02-28T08:08:44;1.23;;;0.88;;
51190;SDS011;37253;48.736;9.294;2023-02-28T08:10:45;1.85;;;0.90;;
51190;SDS011;37253;48.736;9.294;2023-02-28T08:12:45;3.15;;;1.10;;
51190;SDS011;37253;48.736;9.294;2023-02-28T08:14:45;2.83;;;1.20;;
51190;SDS011;37253;48.736;9.294;2023-02-28T08:16:45;7.65;;;1.20;;
51190;SDS011;37253;48.736;9.294;2023-02-28T08:18:46;3.10;;;1.10;;
51190;SDS011;37253;48.736;9.294;2023-02-28T08:20:46;10.85;;;1.67;;
51190;SDS011;37253;48.736;9.294;2023-02-28T08:22:46;5.20;;;1.65;;
51190;SDS011;37253;48.736;9.294;2023-02-28T08:24:47;5.03;;;1.60;;
51190;SDS011;37253;48.736;9.294;2023-02-28T08:26:47;9.57;;;1.63;;
51190;SDS011;37253;48.736;9.294;2023-02-28T08:28:48;5.15;;;1.25;;
51190;SDS011;37253;48.736;9.294;2023-02-28T08:30:48;9.98;;;1.65;;
51190;SDS011;37253;48.736;9.294;2023-02-28T08:32:48;4.45;;;1.67;;
51190;SDS011;37253;48.736;9.294;2023-02-28T08:34:49;8.88;;;1.90;;
51190;SDS011;37253;48.736;9.294;2023-02-28T08:36:49;7.00;;;1.85;;
51190;SDS011;37253;48.736;9.294;2023-02-28T08:38:49;7.57;;;1.80;;
51190;SDS011;37253;48.736;9.294;2023-02-28T08:40:50;14.00;;;2.33;;
51190;SDS011;37253;48.736;9.294;2023-02-28T08:42:56;6.55;;;1.60;;
51190;SDS011;37253;48.736;9.294;2023-02-28T08:44:56;7.75;;;1.70;;
51190;SDS011;37253;48.736;9.294;2023-02-28T08:46:57;5.30;;;2.03;;
51190;SDS011;37253;48.736;9.294;2023-02-28T08:48:57;10.60;;;2.10;;
51190;SDS011;37253;48.736;9.294;2023-02-28T08:51:01;7.75;;;2.30;;
51190;SDS011;37253;48.736;9.294;2023-02-28T08:53:03;4.85;;;1.48;;
51190;SDS011;37253;48.736;9.294;2023-02-28T08:55:04;5.53;;;1.70;;
51190;SDS011;37253;48.736;9.294;2023-02-28T08:57:04;4.95;;;1.45;;
51190;SDS011;37253;48.736;9.294;2023-02-28T08:59:04;5.10;;;1.58;;
51190;SDS011;37253;48.736;9.294;2023-02-28T09:01:11;5.30;;;1.70;;
51190;SDS011;37253;48.736;9.294;2023-02-28T09:03:12;5.75;;;1.85;;
51190;SDS011;37253;48.736;9.294;2023-02-28T09:05:12;4.60;;;1.60;;
51190;SDS011;37253;48.736;9.294;2023-02-28T09:07:13;5.30;;;1.80;;
51190;SDS011;37253;48.736;9.294;2023-02-28T09:09:14;7.57;;;1.88;;
51190;SDS011;37253;48.736;9.294;2023-02-28T09:11:14;6.88;;;1.80;;
51190;SDS011;37253;48.736;9.294;2023-02-28T09:13:15;5.15;;;2.03;;
51190;SDS011;37253;48.736;9.294;2023-02-28T09:15:15;3.53;;;1.52;;
51190;SDS011;37253;48.736;9.294;2023-02-28T09:17:16;6.57;;;1.60;;
51190;SDS011;37253;48.736;9.294;2023-02-28T09:19:16;4.20;;;1.58;;
51190;SDS011;37253;48.736;9.294;2023-02-28T09:21:17;6.75;;;1.52;;
51190;SDS011;37253;48.736;9.294;2023-02-28T09:23:18;10.27;;;2.03;;
51190;SDS011;37253;48.736;9.294;2023-02-28T09:25:19;13.20;;;2.35;;
51190;SDS011;37253;48.736;9.294;2023-02-28T09:27:19;10.73;;;2.10;;
51190;SDS011;37253;48.736;9.294;2023-02-28T09:29:19;6.57;;;1.80;;
51190;SDS011;37253;48.736;9.294;2023-02-28T09:31:24;7.00;;;2.35;;
51190;SDS011;37253;48.736;9.294;2023-02-28T09:33:26;5.63;;;1.60;;
51190;SDS011;37253;48.736;9.294;2023-02-28T09:35:26;6.93;;;1.63;;
51190;SDS011;37253;48.736;9.294;2023-02-28T09:37:26;4.70;;;1.88;;
51190;SDS011;37253;48.736;9.294;2023-02-28T09:39:29;7.53;;;1.88;;
51190;SDS011;37253;48.736;9.294;2023-02-28T09:41:32;5.85;;;1.58;;
51190;SDS011;37253;48.736;9.294;2023-02-28T09:43:59;8.02;;;1.73;;
51190;SDS011;37253;48.736;9.294;2023-02-28T09:46:02;4.13;;;1.27;;
51190;SDS011;37253;48.736;9.294;2023-02-28T09:48:19;8.43;;;1.90;;
51190;SDS011;37253;48.736;9.294;2023-02-28T09:50:26;4.78;;;1.63;;
51190;SDS011;37253;48.736;9.294;2023-02-28T09:52:30;5.70;;;1.95;;
51190;SDS011;37253;48.736;9.294;2023-02-28T09:54:32;4.22;;;1.60;;
51190;SDS011;37253;48.736;9.294;2023-02-28T09:56:36;3.80;;;1.42;;
51190;SDS011;37253;48.736;9.294;2023-02-28T09:58:41;8.30;;;2.05;;
51190;SDS011;37253;48.736;9.294;2023-02-28T10:00:48;5.18;;;1.55;;
51190;SDS011;37253;48.736;9.294;2023-02-28T10:05:28;3.83;;;1.50;;
51190;SDS011;37253;48.736;9.294;2023-02-28T10:09:55;5.90;;;1.58;;
51190;SDS011;37253;48.736;9.294;2023-02-28T10:12:01;7.43;;;1.70;;
51190;SDS011;37253;48.736;9.294;2023-02-28T10:14:10;7.78;;;1.67;;
51190;SDS011;37253;48.736;9.294;2023-02-28T10:16:14;3.83;;;1.63;;
51190;SDS011;37253;48.736;9.294;2023-02-28T10:18:23;9.40;;;2.10;;
51190;SDS011;37253;48.736;9.294;2023-02-28T10:20:26;7.40;;;1.60;;
51190;SDS011;37253;48.736;9.294;2023-02-28T10:22:38;8.68;;;1.40;;
51190;SDS011;37253;48.736;9.294;2023-02-28T10:24:53;4.55;;;1.50;;
51190;SDS011;37253;48.736;9.294;2023-02-28T10:26:59;5.40;;;1.60;;
51190;SDS011;37253;48.736;9.294;2023-02-28T10:29:01;5.20;;;1.60;;
51190;SDS011;37253;48.736;9.294;2023-02-28T10:31:02;4.55;;;1.35;;
51190;SDS011;37253;48.736;9.294;2023-02-28T10:33:03;5.22;;;1.70;;
51190;SDS011;37253;48.736;9.294;2023-02-28T10:37:13;3.55;;;1.58;;
51190;SDS011;37253;48.736;9.294;2023-02-28T10:41:32;7.10;;;1.75;;
51190;SDS011;37253;48.736;9.294;2023-02-28T10:43:36;2.78;;;1.48;;
51190;SDS011;37253;48.736;9.294;2023-02-28T10:45:38;3.30;;;1.40;;
51190;SDS011;37253;48.736;9.294;2023-02-28T10:47:49;4.68;;;1.80;;
51190;SDS011;37253;48.736;9.294;2023-02-28T10:50:04;3.85;;;1.90;;
51190;SDS011;37253;48.736;9.294;2023-02-28T10:52:08;4.30;;;1.50;;
51190;SDS011;37253;48.736;9.294;2023-02-28T10:54:19;5.53;;;1.60;;
51190;SDS011;37253;48.736;9.294;2023-02-28T10:56:23;2.95;;;1.40;;
51190;SDS011;37253;48.736;9.294;2023-02-28T10:58:25;4.07;;;1.70;;
51190;SDS011;37253;48.736;9.294;2023-02-28T11:00:31;3.58;;;1.80;;
51190;SDS011;37253;48.736;9.294;2023-02-28T11:02:34;4.70;;;1.50;;
51190;SDS011;37253;48.736;9.294;2023-02-28T11:04:36;3.25;;;1.50;;
51190;SDS011;37253;48.736;9.294;2023-02-28T11:06:38;4.17;;;1.67;;
51190;SDS011;37253;48.736;9.294;2023-02-28T11:08:46;3.25;;;1.48;;
51190;SDS011;37253;48.736;9.294;2023-02-28T11:10:58;2.67;;;1.30;;
51190;SDS011;37253;48.736;9.294;2023-02-28T11:12:59;2.47;;;1.37;;
51190;SDS011;37253;48.736;9.294;2023-02-28T11:15:00;2.42;;;1.45;;
51190;SDS011;37253;48.736;9.294;2023-02-28T11:17:11;5.32;;;1.70;;
51190;SDS011;37253;48.736;9.294;2023-02-28T11:21:36;3.75;;;1.65;;
51190;SDS011;37253;48.736;9.294;2023-02-28T11:23:40;2.45;;;1.42;;
51190;SDS011;37253;48.736;9.294;2023-02-28T11:25:45;1.98;;;1.40;;
51190;SDS011;37253;48.736;9.294;2023-02-28T11:27:49;3.10;;;1.40;;
51190;SDS011;37253;48.736;9.294;2023-02-28T11:29:50;5.40;;;1.57;;
51190;SDS011;37253;48.736;9.294;2023-02-28T11:34:30;5.28;;;1.60;;
51190;SDS011;37253;48.736;9.294;2023-02-28T11:36:31;4.75;;;1.60;;
51190;SDS011;37253;48.736;9.294;2023-02-28T11:38:32;5.10;;;1.73;;
51190;SDS011;37253;48.736;9.294;2023-02-28T11:41:19;3.38;;;1.80;;
51190;SDS011;37253;48.736;9.294;2023-02-28T11:45:36;6.45;;;1.50;;
51190;SDS011;37253;48.736;9.294;2023-02-28T11:47:55;8.23;;;1.65;;
51190;SDS011;37253;48.736;9.294;2023-02-28T11:50:21;6.75;;;2.00;;
51190;SDS011;37253;48.736;9.294;2023-02-28T11:57:24;2.80;;;1.60;;
51190;SDS011;37253;48.736;9.294;2023-02-28T11:59:48;7.60;;;1.65;;
51190;SDS011;37253;48.736;9.294;2023-02-28T12:02:05;4.13;;;1.65;;
51190;SDS011;37253;48.736;9.294;2023-02-28T12:11:31;8.70;;;1.73;;
51190;SDS011;37253;48.736;9.294;2023-02-28T12:18:27;8.77;;;1.80;;
51190;SDS011;37253;48.736;9.294;2023-02-28T12:20:54;7.93;;;1.95;;
51190;SDS011;37253;48.736;9.294;2023-02-28T12:23:24;5.30;;;1.80;;
51190;SDS011;37253;48.736;9.294;2023-02-28T12:25:43;5.43;;;1.52;;
51190;SDS011;37253;48.736;9.294;2023-02-28T12:27:48;6.53;;;1.60;;
51190;SDS011;37253;48.736;9.294;2023-02-28T12:31:55;4.32;;;1.75;;
51190;SDS011;37253;48.736;9.294;2023-02-28T12:34:00;4.47;;;1.63;;
51190;SDS011;37253;48.736;9.294;2023-02-28T12:36:21;3.17;;;1.50;;
51190;SDS011;37253;48.736;9.294;2023-02-28T12:40:45;6.13;;;1.40;;
51190;SDS011;37253;48.736;9.294;2023-02-28T12:42:50;3.53;;;1.77;;
51190;SDS011;37253;48.736;9.294;2023-02-28T12:44:54;4.35;;;1.67;;
51190;SDS011;37253;48.736;9.294;2023-02-28T12:46:59;3.85;;;1.75;;
51190;SDS011;37253;48.736;9.294;2023-02-28T12:49:06;7.05;;;1.60;;
51190;SDS011;37253;48.736;9.294;2023-02-28T12:51:15;4.53;;;1.48;;
51190;SDS011;37253;48.736;9.294;2023-02-28T12:56:02;3.45;;;1.63;;
51190;SDS011;37253;48.736;9.294;2023-02-28T13:00:28;3.92;;;1.50;;
51190;SDS011;37253;48.736;9.294;2023-02-28T13:02:37;3.97;;;1.50;;
51190;SDS011;37253;48.736;9.294;2023-02-28T13:07:16;2.38;;;1.55;;
51190;SDS011;37253;48.736;9.294;2023-02-28T13:09:40;3.28;;;1.40;;
51190;SDS011;37253;48.736;9.294;2023-02-28T13:11:42;5.22;;;1.50;;
51190;SDS011;37253;48.736;9.294;2023-02-28T13:13:44;3.70;;;1.50;;
51190;SDS011;37253;48.736;9.294;2023-02-28T13:18:04;3.58;;;1.67;;
51190;SDS011;37253;48.736;9.294;2023-02-28T13:20:04;3.88;;;1.63;;
51190;SDS011;37253;48.736;9.294;2023-02-28T13:22:36;1.95;;;1.60;;
51190;SDS011;37253;48.736;9.294;2023-02-28T13:24:45;3.05;;;1.42;;
51190;SDS011;37253;48.736;9.294;2023-02-28T13:35:36;2.20;;;1.50;;
51190;SDS011;37253;48.736;9.294;2023-02-28T13:37:44;2.42;;;1.45;;
51190;SDS011;37253;48.736;9.294;2023-02-28T13:41:48;3.22;;;1.27;;
51190;SDS011;37253;48.736;9.294;2023-02-28T13:44:01;2.53;;;1.40;;
51190;SDS011;37253;48.736;9.294;2023-02-28T13:46:11;3.47;;;1.30;;
51190;SDS011;37253;48.736;9.294;2023-02-28T13:48:19;2.22;;;1.60;;
51190;SDS011;37253;48.736;9.294;2023-02-28T13:50:33;3.22;;;1.30;;
51190;SDS011;37253;48.736;9.294;2023-02-28T13:52:41;5.35;;;1.50;;
51190;SDS011;37253;48.736;9.294;2023-02-28T13:54:54;2.00;;;1.30;;
51190;SDS011;37253;48.736;9.294;2023-02-28T14:01:55;2.63;;;1.23;;
51190;SDS011;37253;48.736;9.294;2023-02-28T14:06:29;2.45;;;1.67;;